This is the latest recevied weather packets stored in our database for station/object DH1NAI-6. If no packets are shown the sender has not sent any weather packets the latest 10 day(s).
| Time | Temp. | Humidity | Pressure | Rain* | Wind** | Luminosity | Snow |
|---|---|---|---|---|---|---|---|
| 1787582855 | 18.89° C | 60% | 1018.2 hPa | 0 mm | - | 93 W/m² | - |
| 1787582247 | 19.44° C | 58% | 1018.3 hPa | 0 mm | - | 110 W/m² | - |
| 1787581623 | 19.44° C | 58% | 1018.5 hPa | 0 mm | - | 96 W/m² | - |
| 1787580999 | 19.44° C | 56% | 1018.4 hPa | 0 mm | - | 136 W/m² | - |
| 1787580392 | 18.89° C | 59% | 1018.5 hPa | 0 mm | - | 102 W/m² | - |
| 1787579783 | 19.44° C | 54% | 1018.6 hPa | 0 mm | - | 130 W/m² | - |
| 1787579175 | 18.89° C | 57% | 1018.8 hPa | 0 mm | - | 147 W/m² | - |
| 1787578567 | 18.89° C | 58% | 1018.9 hPa | 0 mm | - | 129 W/m² | - |
| 1787577959 | 18.89° C | 56% | 1018.9 hPa | 0 mm | - | 139 W/m² | - |
| 1787577351 | 18.89° C | 55% | 1019 hPa | 0 mm | - | 145 W/m² | - |
| 1787576743 | 18.89° C | 57% | 1018.8 hPa | 0 mm | - | 165 W/m² | - |
| 1787576132 | 18.33° C | 57% | 1019.1 hPa | 0 mm | - | 165 W/m² | - |
| 1787575527 | 18.33° C | 57% | 1019.3 hPa | 0 mm | - | 173 W/m² | - |
| 1787574919 | 18.33° C | 61% | 1019.2 hPa | 0 mm | - | 163 W/m² | - |
| 1787574311 | 18.33° C | 58% | 1019.3 hPa | 0 mm | - | 170 W/m² | - |
| 1787573703 | 18.89° C | 57% | 1019.4 hPa | 0 mm | - | 129 W/m² | - |
| 1787573079 | 18.89° C | 55% | 1019.4 hPa | 0 mm | - | 173 W/m² | - |
| 1787572472 | 18.33° C | 59% | 1019.4 hPa | 0 mm | - | 174 W/m² | - |
| 1787571863 | 17.78° C | 62% | 1019.6 hPa | 0 mm | - | 166 W/m² | - |
| 1787571255 | 18.33° C | 58% | 1019.7 hPa | 0 mm | - | 169 W/m² | - |
| 1787570647 | 17.78° C | 60% | 1020 hPa | 0 mm | - | 184 W/m² | - |
| 1787570039 | 17.78° C | 65% | 1019.9 hPa | 0 mm | - | 157 W/m² | - |
| 1787569412 | 18.33° C | 58% | 1019.9 hPa | 0 mm | - | 152 W/m² | - |
| 1787568807 | 17.22° C | 63% | 1019.9 hPa | 0 mm | - | 151 W/m² | - |
| 1787568199 | 16.67° C | 63% | 1019.9 hPa | 0 mm | - | 154 W/m² | - |
* Rain latest hour (hover to see other rain measurements)
** Current wind speed in m/s (hover to see current wind gust speed)